createdAt,value
2022-12-05T00:07:08.582Z,55.30497
2022-12-05T00:22:10.783Z,4.33765
2022-12-05T00:37:12.962Z,1.08441
2022-12-05T00:52:15.178Z,0
2022-12-05T01:07:17.465Z,1.08441
2022-12-05T01:22:19.655Z,1.08441
2022-12-05T01:37:21.900Z,1.08441
2022-12-05T01:52:24.165Z,1.08441
2022-12-05T02:07:26.386Z,1.08441
2022-12-05T02:22:28.659Z,1.08441
2022-12-05T02:37:30.882Z,1.08441
2022-12-05T02:52:33.122Z,1.08441
2022-12-05T03:07:35.379Z,1.08441
2022-12-05T03:22:37.690Z,1.08441
2022-12-05T03:37:39.886Z,1.08441
2022-12-05T03:53:11.416Z,1.08441
2022-12-05T04:08:21.276Z,1.08441
2022-12-05T04:23:23.563Z,1.08441
2022-12-05T04:38:25.790Z,1.08441
2022-12-05T04:53:28.026Z,1.08441
2022-12-05T05:08:30.255Z,1.08441
2022-12-05T05:23:32.526Z,1.08441
2022-12-05T05:38:34.898Z,1.08441
2022-12-05T05:53:37.141Z,1.08441
2022-12-05T06:08:39.427Z,1.08441
2022-12-05T06:23:41.662Z,1.08441
2022-12-05T06:38:43.858Z,1.08441
2022-12-05T06:53:46.090Z,1.08441
2022-12-05T07:08:48.284Z,1.08441
2022-12-05T07:23:50.523Z,1.08441
2022-12-05T07:38:52.706Z,1.08441
2022-12-05T07:53:54.939Z,1.08441
2022-12-05T08:08:57.168Z,1.08441
2022-12-05T08:23:59.462Z,1.08441
2022-12-05T08:39:01.695Z,1.08441
2022-12-05T08:54:03.934Z,1.08441
2022-12-05T09:09:06.143Z,1.08441
2022-12-05T09:24:08.351Z,1.08441
2022-12-05T09:39:10.813Z,1.08441
2022-12-05T09:54:13.122Z,1.08441
2022-12-05T10:09:15.493Z,1.08441
2022-12-05T10:24:17.722Z,1.08441
2022-12-05T10:39:19.952Z,1.08441
2022-12-05T10:54:22.196Z,1.08441
2022-12-05T11:09:24.390Z,1.08441
2022-12-05T11:24:26.721Z,1.08441
2022-12-05T11:39:28.968Z,1.08441
2022-12-05T11:55:03.468Z,1.08441
2022-12-05T12:10:09.847Z,1.08441
2022-12-05T12:25:12.907Z,1.08441
2022-12-05T12:40:15.352Z,1.08441
2022-12-05T12:55:18.028Z,1.08441
2022-12-05T13:10:20.496Z,1.08441
2022-12-05T13:25:22.789Z,1.08441
2022-12-05T13:40:25.360Z,1.08441
2022-12-05T13:55:33.861Z,1.08441
2022-12-05T14:10:38.148Z,1.08441
2022-12-05T14:25:48.995Z,1.08441
2022-12-05T14:41:06.532Z,0
2022-12-05T14:56:09.160Z,1.08441
2022-12-05T15:11:11.591Z,16.26617
2022-12-05T15:26:44.742Z,88.92172
2022-12-05T15:41:48.354Z,257.00546
2022-12-05T15:56:50.664Z,574.73798
2022-12-05T16:11:52.986Z,897.89252
2022-12-05T16:26:58.134Z,1337.0791
2022-12-05T16:42:00.621Z,2139.54346
2022-12-05T16:57:02.940Z,3357.33716
2022-12-05T17:12:05.293Z,4546.93652
2022-12-05T17:27:07.582Z,6077.04053
2022-12-05T17:42:09.899Z,5953.41797
2022-12-05T17:57:12.224Z,5333.13477
2022-12-05T18:12:14.725Z,6322.11768
2022-12-05T18:27:17.024Z,6351.39697
2022-12-05T18:42:19.323Z,8011.63037
2022-12-05T18:57:21.689Z,8699.14746
2022-12-05T19:12:23.926Z,9006.03516
2022-12-05T19:27:26.259Z,9652.34473
2022-12-05T19:42:28.613Z,10463.48438
2022-12-05T19:57:31.503Z,11551.14844
2022-12-05T20:12:33.964Z,10661.93164
2022-12-05T20:27:36.502Z,10157.68066
2022-12-05T20:42:43.479Z,11134.73438
2022-12-05T20:57:48.728Z,9962.48633
2022-12-05T21:12:51.019Z,13418.50488
2022-12-05T21:27:53.370Z,14866.19434
2022-12-05T21:42:55.649Z,7115.90674
2022-12-05T21:57:57.960Z,6052.09912
2022-12-05T22:13:00.286Z,3913.64014
2022-12-05T22:28:02.639Z,3459.27197
2022-12-05T22:43:05.013Z,2144.96558
2022-12-05T22:58:07.262Z,1982.30383
2022-12-05T23:13:09.613Z,1176.58618
2022-12-05T23:28:11.924Z,1048.62573
2022-12-05T23:43:14.296Z,355.68689
2022-12-05T23:58:16.537Z,155.07082
